createdAt,value
2018-02-02T00:00:07.647Z,16.83
2018-02-02T00:02:35.254Z,18.63
2018-02-02T00:05:02.855Z,15.43
2018-02-02T00:07:30.473Z,20.20
2018-02-02T00:09:58.048Z,18.10
2018-02-02T00:12:25.617Z,22.53
2018-02-02T00:14:53.982Z,23.20
2018-02-02T00:17:21.573Z,18.67
2018-02-02T00:19:49.142Z,25.13
2018-02-02T00:22:16.745Z,21.77
2018-02-02T00:24:44.322Z,20.23
2018-02-02T00:27:11.898Z,18.23
2018-02-02T00:29:39.534Z,21.47
2018-02-02T00:32:07.346Z,17.73
2018-02-02T00:34:35.151Z,22.43
2018-02-02T00:37:02.748Z,17.23
2018-02-02T00:39:30.311Z,22.37
2018-02-02T00:41:57.939Z,20.30
2018-02-02T00:44:25.502Z,23.33
2018-02-02T00:46:53.067Z,23.47
2018-02-02T00:49:20.674Z,21.17
2018-02-02T00:51:54.007Z,22.70
2018-02-02T00:54:22.397Z,20.33
2018-02-02T00:56:50.066Z,23.20
2018-02-02T00:59:17.635Z,25.37
2018-02-02T01:01:45.234Z,21.10
2018-02-02T01:04:13.571Z,21.37
2018-02-02T01:06:41.192Z,23.87
2018-02-02T01:09:09.037Z,19.30
2018-02-02T01:11:36.591Z,21.27
2018-02-02T01:14:04.330Z,21.00
2018-02-02T01:16:31.930Z,24.63
2018-02-02T01:18:59.534Z,23.57
2018-02-02T01:21:27.115Z,25.53
2018-02-02T01:23:54.707Z,22.47
2018-02-02T01:26:22.345Z,26.17
2018-02-02T01:28:49.917Z,24.67
2018-02-02T01:31:17.482Z,22.67
2018-02-02T01:33:45.088Z,22.70
2018-02-02T01:36:13.509Z,29.43
2018-02-02T01:38:41.048Z,25.73
2018-02-02T01:41:08.617Z,22.47
2018-02-02T01:43:36.317Z,23.20
2018-02-02T01:46:03.874Z,20.93
2018-02-02T01:48:31.607Z,20.90
2018-02-02T01:50:59.453Z,23.00
2018-02-02T01:53:27.019Z,19.20
2018-02-02T01:55:54.626Z,21.23
2018-02-02T01:58:22.196Z,18.13
2018-02-02T02:00:49.806Z,13.87
2018-02-02T02:03:17.395Z,15.53
2018-02-02T02:05:45.103Z,13.80
2018-02-02T02:08:13.427Z,7.67
2018-02-02T02:10:40.982Z,8.53
2018-02-02T02:13:08.572Z,5.90
2018-02-02T02:15:36.234Z,6.87
2018-02-02T02:18:04.996Z,6.70
2018-02-02T02:20:32.562Z,7.03
2018-02-02T02:23:00.161Z,7.50
2018-02-02T02:25:27.757Z,7.97
2018-02-02T02:27:55.331Z,8.93
2018-02-02T02:30:22.886Z,9.23
2018-02-02T02:32:50.494Z,10.20
2018-02-02T02:35:18.087Z,10.27
2018-02-02T02:37:45.670Z,10.33
2018-02-02T02:40:13.286Z,10.60
2018-02-02T02:42:40.857Z,11.60
2018-02-02T02:45:08.467Z,13.57
2018-02-02T02:47:36.078Z,12.90
2018-02-02T02:50:03.642Z,13.13
2018-02-02T02:52:32.014Z,15.80
2018-02-02T02:54:59.593Z,16.60
2018-02-02T02:57:27.210Z,15.37
2018-02-02T02:59:54.779Z,19.03
2018-02-02T03:02:22.393Z,15.90
2018-02-02T03:04:49.967Z,15.23
2018-02-02T03:07:17.538Z,15.80
2018-02-02T03:09:45.148Z,17.17
2018-02-02T03:12:12.722Z,17.47
2018-02-02T03:14:40.282Z,16.07
2018-02-02T03:17:07.887Z,14.93
2018-02-02T03:19:35.455Z,14.43
2018-02-02T03:22:03.058Z,16.97
2018-02-02T03:24:31.426Z,18.70
2018-02-02T03:26:59.031Z,18.87
2018-02-02T03:29:26.604Z,19.30
2018-02-02T03:31:54.214Z,20.33
2018-02-02T03:34:21.785Z,20.03
2018-02-02T03:36:49.400Z,19.23
2018-02-02T03:39:16.963Z,22.77
2018-02-02T03:41:44.532Z,24.90
2018-02-02T03:44:12.138Z,23.23
2018-02-02T03:46:39.702Z,24.87
2018-02-02T03:49:07.297Z,23.00
2018-02-02T03:51:34.863Z,22.93
2018-02-02T03:54:02.470Z,27.30
2018-02-02T03:56:30.798Z,25.93
2018-02-02T03:58:58.402Z,26.83
2018-02-02T04:01:25.972Z,26.57
2018-02-02T04:03:53.579Z,29.23
2018-02-02T04:06:21.155Z,29.73
2018-02-02T04:08:48.812Z,26.40
2018-02-02T04:11:16.380Z,27.80
2018-02-02T04:13:43.949Z,28.17
2018-02-02T04:16:11.549Z,28.43
2018-02-02T04:18:39.116Z,27.43
2018-02-02T04:21:06.721Z,27.43
2018-02-02T04:23:34.277Z,26.07
2018-02-02T04:26:01.882Z,24.60
2018-02-02T04:28:30.220Z,29.83
2018-02-02T04:30:57.829Z,30.03
2018-02-02T04:33:25.532Z,26.37
2018-02-02T04:35:54.049Z,31.73
2018-02-02T04:38:21.661Z,28.53
2018-02-02T04:40:49.244Z,24.87
2018-02-02T04:43:16.870Z,28.07
2018-02-02T04:45:44.488Z,23.70
2018-02-02T04:48:12.066Z,23.47
2018-02-02T04:50:39.638Z,23.43
2018-02-02T04:53:07.254Z,25.77
2018-02-02T04:55:34.821Z,24.17
2018-02-02T04:58:02.423Z,23.87
2018-02-02T05:00:29.985Z,20.03
2018-02-02T05:02:58.411Z,20.10
2018-02-02T05:05:25.974Z,20.83
2018-02-02T05:07:53.541Z,20.93
2018-02-02T05:10:21.142Z,22.20
2018-02-02T05:12:48.710Z,22.30
2018-02-02T05:15:16.336Z,24.10
2018-02-02T05:17:43.912Z,22.83
2018-02-02T05:20:11.483Z,22.77
2018-02-02T05:22:39.871Z,24.33
2018-02-02T05:25:08.204Z,18.73
2018-02-02T05:27:35.802Z,19.90
2018-02-02T05:30:03.411Z,20.33
2018-02-02T05:32:31.142Z,22.33
2018-02-02T05:34:58.721Z,15.37
2018-02-02T05:37:26.332Z,25.50
2018-02-02T05:39:53.913Z,22.07
2018-02-02T05:42:22.293Z,19.60
2018-02-02T05:44:50.654Z,22.57
2018-02-02T05:47:18.216Z,22.57
2018-02-02T05:49:45.818Z,19.17
2018-02-02T05:52:13.385Z,20.50
2018-02-02T05:54:40.952Z,21.40
2018-02-02T05:57:08.622Z,22.50
2018-02-02T05:59:36.187Z,20.47
2018-02-02T06:02:03.785Z,19.27
2018-02-02T06:04:31.354Z,18.07
2018-02-02T06:06:58.954Z,18.83
2018-02-02T06:09:26.569Z,20.67
2018-02-02T06:11:54.125Z,19.10
2018-02-02T06:14:21.685Z,16.97
2018-02-02T06:16:49.285Z,17.97
2018-02-02T06:19:28.535Z,15.47
2018-02-02T06:21:56.137Z,16.97
2018-02-02T06:24:23.764Z,14.87
2018-02-02T06:26:51.325Z,17.33
2018-02-02T06:29:18.879Z,15.27
2018-02-02T06:31:46.481Z,17.30
2018-02-02T06:34:14.043Z,10.97
2018-02-02T06:36:41.612Z,12.77
2018-02-02T06:39:09.205Z,7.87
2018-02-02T06:41:36.812Z,15.07
2018-02-02T06:44:04.369Z,11.40
2018-02-02T06:46:31.977Z,11.00
2018-02-02T06:48:59.543Z,13.07
2018-02-02T06:51:27.145Z,10.53
2018-02-02T06:53:54.707Z,10.60
2018-02-02T06:56:22.304Z,8.07
2018-02-02T06:58:50.631Z,7.23
2018-02-02T07:01:18.238Z,3.93
2018-02-02T07:03:45.803Z,5.30
2018-02-02T07:06:13.363Z,9.27
2018-02-02T07:08:40.959Z,7.63
2018-02-02T07:11:08.514Z,3.50
2018-02-02T07:13:36.110Z,4.57
2018-02-02T07:16:03.745Z,5.33
2018-02-02T07:18:31.310Z,6.93
2018-02-02T07:20:58.909Z,3.07
2018-02-02T07:23:26.462Z,3.07
2018-02-02T07:25:54.054Z,3.70
2018-02-02T07:28:21.623Z,2.40
2018-02-02T07:30:49.209Z,5.13
2018-02-02T07:33:16.776Z,3.63
2018-02-02T07:35:44.369Z,6.17
2018-02-02T07:38:11.934Z,3.97
2018-02-02T07:40:39.734Z,6.37
2018-02-02T07:43:07.746Z,4.10
2018-02-02T07:45:35.917Z,8.00
2018-02-02T07:48:04.006Z,2.43
2018-02-02T07:50:32.069Z,13.50
2018-02-02T07:53:00.200Z,8.13
2018-02-02T07:55:28.419Z,3.73
2018-02-02T07:57:56.451Z,6.20
2018-02-02T08:00:24.490Z,2.77
2018-02-02T08:02:52.574Z,4.63
2018-02-02T08:05:21.662Z,5.57
2018-02-02T08:07:49.726Z,4.10
2018-02-02T08:10:17.863Z,3.10
2018-02-02T08:12:46.045Z,3.67
2018-02-02T08:15:14.168Z,5.67
2018-02-02T08:17:42.186Z,4.80
2018-02-02T08:20:10.254Z,4.40
2018-02-02T08:22:38.397Z,5.57
2018-02-02T08:25:06.516Z,4.47
2018-02-02T08:27:34.790Z,6.00
2018-02-02T08:30:02.781Z,4.63
2018-02-02T08:32:31.556Z,6.57
2018-02-02T08:34:59.397Z,8.83
2018-02-02T08:37:27.485Z,8.30
2018-02-02T08:39:55.569Z,10.30
2018-02-02T08:42:23.596Z,10.37
2018-02-02T08:44:51.655Z,7.17
2018-02-02T08:47:19.685Z,5.27
2018-02-02T08:49:48.612Z,11.13
2018-02-02T08:52:16.579Z,9.67
2018-02-02T08:54:44.707Z,10.90
2018-02-02T08:57:12.661Z,8.03
2018-02-02T08:59:40.704Z,13.53
2018-02-02T09:02:08.895Z,7.57
2018-02-02T09:04:37.104Z,8.80
2018-02-02T09:07:05.103Z,11.20
2018-02-02T09:09:33.236Z,17.30
2018-02-02T09:12:02.049Z,8.80
2018-02-02T09:14:30.178Z,13.67
2018-02-02T09:16:58.213Z,14.60
2018-02-02T09:19:26.695Z,13.40
2018-02-02T09:21:54.263Z,9.13
2018-02-02T09:24:23.127Z,5.80
2018-02-02T09:26:51.307Z,9.63
2018-02-02T09:29:20.273Z,7.27
2018-02-02T09:31:48.456Z,8.70
2018-02-02T09:34:16.721Z,5.37
2018-02-02T09:36:44.760Z,4.93
2018-02-02T09:39:12.753Z,5.87
2018-02-02T09:41:40.816Z,6.03
2018-02-02T09:44:08.782Z,6.90
2018-02-02T09:46:36.414Z,8.00
2018-02-02T09:49:04.014Z,9.73
2018-02-02T09:51:31.610Z,9.33
2018-02-02T09:53:59.178Z,6.47
2018-02-02T09:56:26.811Z,5.73
2018-02-02T09:58:54.435Z,6.07
2018-02-02T10:01:22.838Z,4.27
2018-02-02T10:03:50.389Z,3.63
2018-02-02T10:06:18.705Z,4.87
2018-02-02T10:08:46.303Z,3.70
2018-02-02T10:11:13.877Z,3.80
2018-02-02T10:13:42.225Z,5.43
2018-02-02T10:16:09.791Z,1.67
2018-02-02T10:18:37.567Z,3.93
2018-02-02T10:21:05.130Z,2.40
2018-02-02T10:23:32.734Z,17.60
2018-02-02T10:26:00.294Z,12.80
2018-02-02T10:28:27.885Z,3.47
2018-02-02T10:30:55.437Z,4.10
2018-02-02T10:33:23.034Z,2.63
2018-02-02T10:35:50.698Z,4.20
2018-02-02T10:38:18.289Z,7.13
2018-02-02T10:40:45.858Z,11.47
2018-02-02T10:43:13.453Z,2.63
2018-02-02T10:45:41.013Z,24.77
2018-02-02T10:48:08.570Z,9.23
2018-02-02T10:50:36.166Z,4.27
2018-02-02T10:53:03.728Z,11.00
2018-02-02T10:55:31.330Z,3.90
2018-02-02T10:57:58.889Z,4.23
2018-02-02T11:00:26.486Z,0.77
2018-02-02T11:02:59.717Z,2.67
2018-02-02T11:05:28.074Z,4.57
2018-02-02T11:07:55.669Z,1.77
2018-02-02T11:10:23.246Z,9.43
2018-02-02T11:12:50.841Z,5.63
2018-02-02T11:15:18.410Z,2.10
2018-02-02T11:17:46.010Z,16.83
2018-02-02T11:20:14.380Z,14.13
2018-02-02T11:22:42.754Z,7.10
2018-02-02T11:25:11.077Z,5.73
2018-02-02T11:27:38.638Z,1.77
2018-02-02T11:30:06.251Z,16.77
2018-02-02T11:32:33.822Z,10.20
2018-02-02T11:35:02.184Z,4.07
2018-02-02T11:37:29.739Z,1.03
2018-02-02T11:39:57.330Z,1.83
2018-02-02T11:42:25.698Z,0.47
2018-02-02T11:44:53.250Z,1.93
2018-02-02T11:47:21.618Z,17.13
2018-02-02T11:49:49.270Z,1.87
2018-02-02T11:52:16.845Z,2.73
2018-02-02T11:54:46.691Z,2.53
2018-02-02T11:57:14.332Z,2.63
2018-02-02T11:59:41.998Z,1.37
2018-02-02T12:02:11.074Z,1.47
2018-02-02T12:04:39.018Z,1.87
2018-02-02T12:07:07.492Z,1.57
2018-02-02T12:09:35.109Z,0.97
2018-02-02T12:12:02.815Z,3.37
2018-02-02T12:14:30.378Z,2.83
2018-02-02T12:16:57.946Z,2.10
2018-02-02T12:19:26.639Z,1.43
2018-02-02T12:21:55.914Z,6.50
2018-02-02T12:27:41.218Z,2.20
2018-02-02T12:30:14.451Z,2.97
2018-02-02T12:32:55.892Z,4.30
2018-02-02T12:35:24.004Z,2.50
2018-02-02T12:37:51.678Z,4.60
2018-02-02T12:40:19.367Z,4.07
2018-02-02T12:42:47.163Z,6.43
2018-02-02T12:45:14.806Z,2.83
2018-02-02T12:47:42.593Z,5.57
2018-02-02T12:50:14.281Z,4.53
2018-02-02T12:52:41.925Z,0.80
2018-02-02T12:55:09.599Z,3.73
2018-02-02T12:57:37.248Z,2.63
2018-02-02T13:00:04.861Z,2.63
2018-02-02T13:02:33.207Z,2.37
2018-02-02T13:05:00.866Z,2.00
2018-02-02T13:07:29.486Z,2.20
2018-02-02T13:09:57.186Z,2.87
2018-02-02T13:12:24.939Z,3.33
2018-02-02T13:14:52.530Z,1.47
2018-02-02T13:17:20.149Z,0.30
2018-02-02T13:19:47.840Z,0.77
2018-02-02T13:22:15.469Z,1.60
2018-02-02T13:24:43.157Z,1.23
2018-02-02T13:27:10.841Z,2.93
2018-02-02T13:29:39.345Z,2.70
2018-02-02T13:32:06.941Z,1.80
2018-02-02T13:34:35.504Z,6.43
2018-02-02T13:37:03.128Z,1.47
2018-02-02T13:39:31.016Z,0.97
2018-02-02T13:41:58.860Z,2.93
2018-02-02T13:44:28.702Z,1.60
2018-02-02T13:46:56.522Z,2.63
2018-02-02T13:49:24.403Z,3.80
2018-02-02T13:51:52.126Z,4.23
2018-02-02T13:54:20.033Z,11.10
2018-02-02T13:56:47.728Z,1.27
2018-02-02T13:59:17.156Z,11.87
2018-02-02T14:01:44.787Z,30.93
2018-02-02T14:04:13.118Z,4.73
2018-02-02T14:06:40.889Z,2.10
2018-02-02T14:09:09.399Z,2.03
2018-02-02T14:11:37.187Z,3.17
2018-02-02T14:14:04.919Z,1.53
2018-02-02T14:16:32.682Z,2.63
2018-02-02T14:19:00.313Z,3.37
2018-02-02T14:21:27.943Z,1.40
2018-02-02T14:23:55.531Z,0.70
2018-02-02T14:26:23.114Z,1.43
2018-02-02T14:28:55.781Z,5.67
2018-02-02T14:31:23.450Z,2.23
2018-02-02T14:33:51.125Z,4.80
2018-02-02T14:36:18.740Z,6.60
2018-02-02T14:38:46.382Z,1.37
2018-02-02T14:41:14.132Z,4.50
2018-02-02T14:43:42.547Z,3.23
2018-02-02T14:46:10.107Z,5.50
2018-02-02T14:48:37.809Z,3.27
2018-02-02T14:51:05.427Z,2.27
2018-02-02T14:53:32.990Z,1.83
2018-02-02T14:56:00.722Z,3.60
2018-02-02T14:58:28.310Z,4.40
2018-02-02T15:00:55.931Z,2.97
2018-02-02T15:03:23.589Z,31.73
2018-02-02T15:05:51.177Z,5.53
2018-02-02T15:08:18.853Z,28.77
2018-02-02T15:10:46.457Z,17.10
2018-02-02T15:13:14.116Z,27.97
2018-02-02T15:15:41.746Z,27.50
2018-02-02T15:18:09.319Z,16.47
2018-02-02T15:20:37.053Z,10.13
2018-02-02T15:23:09.204Z,5.37
2018-02-02T15:25:38.121Z,4.67
2018-02-02T15:28:06.301Z,9.00
2018-02-02T15:30:34.038Z,10.40
2018-02-02T15:33:02.437Z,11.23
2018-02-02T15:35:30.090Z,10.27
2018-02-02T15:37:57.710Z,7.73
2018-02-02T15:40:25.290Z,3.27
2018-02-02T15:42:52.909Z,3.63
2018-02-02T15:45:20.497Z,3.40
2018-02-02T15:47:48.155Z,27.17
2018-02-02T15:50:15.794Z,2.80
2018-02-02T15:52:43.522Z,4.07
2018-02-02T15:55:11.122Z,3.47
2018-02-02T15:57:38.795Z,3.60
2018-02-02T16:00:06.390Z,9.10
2018-02-02T16:02:34.785Z,3.73
2018-02-02T16:05:02.359Z,8.87
2018-02-02T16:07:30.078Z,3.87
2018-02-02T16:09:58.040Z,2.23
2018-02-02T16:12:25.645Z,3.93
2018-02-02T16:14:53.313Z,35.00
2018-02-02T16:17:21.171Z,4.13
2018-02-02T16:19:48.943Z,5.83
2018-02-02T16:22:16.845Z,4.93
2018-02-02T16:24:44.684Z,7.20
2018-02-02T16:27:12.665Z,23.13
2018-02-02T16:29:40.405Z,23.50
2018-02-02T16:32:08.704Z,6.23
2018-02-02T16:34:38.102Z,10.77
2018-02-02T16:37:06.050Z,17.53
2018-02-02T16:39:34.337Z,3.57
2018-02-02T16:42:03.404Z,13.57
2018-02-02T16:44:31.527Z,34.47
2018-02-02T16:46:59.687Z,9.73
2018-02-02T16:49:28.402Z,10.27
2018-02-02T16:51:56.579Z,5.27
2018-02-02T16:54:24.623Z,16.60
2018-02-02T16:56:53.589Z,53.00
2018-02-02T16:59:22.704Z,11.60
2018-02-02T17:01:51.682Z,10.63
2018-02-02T17:04:19.740Z,20.00
2018-02-02T17:06:47.769Z,10.00
2018-02-02T17:09:16.649Z,12.37
2018-02-02T17:11:45.700Z,18.17
2018-02-02T17:14:14.494Z,10.23
2018-02-02T17:16:42.702Z,9.13
2018-02-02T17:19:10.837Z,10.70
2018-02-02T17:21:38.876Z,10.87
2018-02-02T17:24:07.133Z,13.77
2018-02-02T17:26:35.434Z,15.87
2018-02-02T17:29:05.367Z,13.90
2018-02-02T17:31:34.652Z,17.33
2018-02-02T17:34:03.199Z,7.10
2018-02-02T17:36:31.402Z,8.17
2018-02-02T17:39:00.450Z,7.17
2018-02-02T17:41:28.570Z,8.03
2018-02-02T17:43:56.751Z,11.50
2018-02-02T17:46:25.792Z,13.17
2018-02-02T17:48:53.946Z,7.53
2018-02-02T17:51:22.211Z,15.67
2018-02-02T17:53:50.269Z,16.13
2018-02-02T17:56:18.352Z,15.67
2018-02-02T17:58:46.466Z,21.47
2018-02-02T18:01:16.794Z,13.93
2018-02-02T18:03:45.073Z,16.07
2018-02-02T18:06:14.713Z,11.97
2018-02-02T18:08:42.888Z,15.60
2018-02-02T18:11:10.857Z,23.33
2018-02-02T18:13:38.964Z,20.63
2018-02-02T18:16:06.819Z,20.80
2018-02-02T18:18:34.884Z,18.30
2018-02-02T18:21:02.829Z,12.50
2018-02-02T18:23:31.528Z,20.37
2018-02-02T18:26:00.236Z,17.53
2018-02-02T18:28:29.021Z,15.30
2018-02-02T18:30:57.367Z,22.93
2018-02-02T18:33:25.173Z,18.53
2018-02-02T18:35:53.149Z,15.30
2018-02-02T18:38:20.854Z,18.67
2018-02-02T18:40:48.764Z,14.70
2018-02-02T18:43:16.728Z,19.00
2018-02-02T18:45:45.086Z,25.07
2018-02-02T18:48:12.742Z,18.73
2018-02-02T18:50:41.090Z,15.40
2018-02-02T18:53:08.820Z,18.50
2018-02-02T18:55:36.453Z,15.27
2018-02-02T18:58:04.050Z,16.00
2018-02-02T19:00:33.719Z,18.23
2018-02-02T19:03:02.073Z,13.47
2018-02-02T19:05:29.700Z,9.53
2018-02-02T19:07:58.051Z,11.10
2018-02-02T19:10:25.753Z,6.93
2018-02-02T19:12:53.324Z,11.50
2018-02-02T19:15:21.099Z,14.60
2018-02-02T19:17:49.572Z,8.77
2018-02-02T19:20:17.933Z,24.13
2018-02-02T19:22:45.839Z,14.83
2018-02-02T19:25:13.477Z,16.30
2018-02-02T19:27:41.478Z,13.00
2018-02-02T19:30:09.968Z,10.67
2018-02-02T19:32:37.600Z,12.90
2018-02-02T19:35:05.169Z,10.90
2018-02-02T19:37:32.783Z,8.33
2018-02-02T19:40:01.485Z,9.43
2018-02-02T19:42:29.368Z,12.73
2018-02-02T19:44:57.213Z,6.80
2018-02-02T19:47:25.496Z,8.20
2018-02-02T19:49:53.437Z,8.40
2018-02-02T19:52:21.077Z,9.93
2018-02-02T19:54:49.180Z,10.50
2018-02-02T19:57:17.432Z,9.90
2018-02-02T19:59:45.072Z,6.60
2018-02-02T20:02:13.090Z,10.77
2018-02-02T20:04:40.827Z,7.10
2018-02-02T20:07:08.517Z,11.27
2018-02-02T20:09:37.301Z,6.27
2018-02-02T20:12:05.016Z,8.03
2018-02-02T20:14:32.846Z,10.17
2018-02-02T20:17:01.360Z,6.47
2018-02-02T20:19:29.230Z,13.60
2018-02-02T20:21:56.811Z,7.57
2018-02-02T20:24:24.977Z,4.90
2018-02-02T20:26:52.763Z,7.50
2018-02-02T20:29:20.773Z,7.10
2018-02-02T20:31:48.608Z,10.90
2018-02-02T20:34:16.655Z,9.60
2018-02-02T20:36:44.575Z,9.20
2018-02-02T20:39:12.209Z,9.63
2018-02-02T20:41:39.834Z,9.20
2018-02-02T20:44:08.105Z,6.67
2018-02-02T20:46:35.728Z,6.77
2018-02-02T20:49:03.509Z,7.23
2018-02-02T20:51:31.881Z,6.70
2018-02-02T20:54:00.269Z,7.00
2018-02-02T20:56:28.885Z,7.83
2018-02-02T20:58:56.584Z,5.40
2018-02-02T21:01:24.378Z,7.43
2018-02-02T21:03:52.109Z,7.70
2018-02-02T21:06:20.311Z,9.57
2018-02-02T21:08:49.406Z,5.57
2018-02-02T21:11:17.003Z,8.97
2018-02-02T21:13:44.893Z,10.03
2018-02-02T21:16:12.708Z,13.43
2018-02-02T21:18:41.359Z,8.80
2018-02-02T21:21:09.133Z,7.47
2018-02-02T21:23:36.816Z,8.60
2018-02-02T21:26:05.354Z,8.97
2018-02-02T21:28:33.235Z,7.03
2018-02-02T21:31:02.006Z,6.33
2018-02-02T21:33:29.640Z,6.90
2018-02-02T21:35:57.491Z,7.67
2018-02-02T21:38:25.104Z,6.80
2018-02-02T21:40:53.497Z,6.60
2018-02-02T21:43:21.081Z,7.80
2018-02-02T21:45:48.674Z,7.93
2018-02-02T21:48:16.277Z,6.33
2018-02-02T21:50:44.311Z,5.97
2018-02-02T21:53:11.926Z,7.93
2018-02-02T21:55:39.576Z,6.60
2018-02-02T21:58:07.270Z,5.33
2018-02-02T22:00:34.833Z,8.60
2018-02-02T22:03:03.577Z,4.47
2018-02-02T22:05:31.524Z,4.90
2018-02-02T22:07:59.097Z,5.60
2018-02-02T22:10:26.764Z,5.70
2018-02-02T22:12:54.346Z,8.13
2018-02-02T22:15:21.994Z,4.53
2018-02-02T22:17:49.776Z,5.60
2018-02-02T22:20:18.364Z,5.33
2018-02-02T22:22:46.972Z,10.47
2018-02-02T22:25:14.570Z,4.07
2018-02-02T22:27:42.185Z,5.37
2018-02-02T22:30:10.660Z,8.23
2018-02-02T22:32:38.512Z,8.03
2018-02-02T22:35:07.180Z,9.27
2018-02-02T22:37:34.914Z,10.37
2018-02-02T22:40:02.774Z,7.07
2018-02-02T22:42:30.386Z,10.97
2018-02-02T22:44:58.002Z,7.97
2018-02-02T22:47:25.887Z,9.53
2018-02-02T22:49:53.474Z,5.30
2018-02-02T22:52:21.387Z,4.27
2018-02-02T22:54:49.043Z,9.00
2018-02-02T22:57:17.623Z,7.53
2018-02-02T22:59:45.461Z,10.67
2018-02-02T23:02:13.163Z,6.60
2018-02-02T23:04:40.776Z,5.10
2018-02-02T23:07:08.362Z,5.73
2018-02-02T23:09:36.025Z,3.70
2018-02-02T23:12:03.637Z,4.70
2018-02-02T23:14:31.610Z,7.90
2018-02-02T23:16:59.232Z,6.03
2018-02-02T23:19:27.888Z,7.10
2018-02-02T23:21:55.690Z,6.80
2018-02-02T23:24:24.186Z,4.63
2018-02-02T23:26:51.979Z,3.47
2018-02-02T23:29:19.748Z,7.47
2018-02-02T23:31:47.619Z,6.47
2018-02-02T23:34:15.385Z,7.13
2018-02-02T23:36:43.312Z,6.13
2018-02-02T23:39:11.251Z,7.23
2018-02-02T23:41:40.884Z,5.37
2018-02-02T23:44:08.515Z,8.07
2018-02-02T23:46:36.090Z,5.30
2018-02-02T23:49:03.782Z,4.47
2018-02-02T23:51:31.821Z,6.77
2018-02-02T23:53:59.438Z,6.77
2018-02-02T23:56:27.317Z,5.73
2018-02-02T23:58:55.003Z,7.40
